12.12.2018Höhe
ü. NN
ZeitTemperatur (°C)Nieder-
schlag
Luft-
feuchte
Luft-
druck
Wind
StationaktuellMinimumMaximumaktuellMaximum
Aldingen654 m03:31-4,9-5,0 (00:53)-4,3 (14:51)0,0 l/m²92%1025,80,0 km/h (0 Bft) SW16,7 km/h (3 Bft) W-NW (04:33)
Allmannsweiler625 m03:30-2,3-2,3 (03:10)-0,9 (00:45)0,0 l/m²93%1024,26,4 km/h (2 Bft) W-SW11,3 km/h (2 Bft) NW (00:00)
Allmendingen541 m03:30-2,5-3,5 (23:45)-1,8 (14:20)0,0 l/m²93%1024,00,0 km/h (0 Bft) W-NW12,9 km/h (3 Bft) W-SW (09:00)
Altshausen574 m03:30-3,9-3,9 (03:05)-2,8 (01:27)0,0 l/m²94%1020,70,0 km/h (0 Bft) W4,8 km/h (1 Bft) S (01:11)
Amstetten-Reutti663 m03:30-0,6-1,4 (03:00)-0,4 (14:40)0,0 l/m²95%1023,516,1 km/h (3 Bft) W-NW40,2 km/h (6 Bft) W (04:05)
Amtzell-Grenis677 m03:30-1,9-2,8 (01:20)-1,5 (02:15)0,0 l/m²85%1025,68,0 km/h (2 Bft) S-SW11,3 km/h (2 Bft) S-SW (03:15)
Aulendorf570 m03:30-2,5-2,5 (03:24)-1,8 (00:00)0,0 l/m²85%1024,03,2 km/h (1 Bft) W-NW6,4 km/h (2 Bft) W-NW (01:22)
Bad Krozingen233 m03:30-2,1-2,2 (03:30)-0,9 (14:35)0,0 l/m²91%1025,83,3 km/h (1 Bft) S-SO9,9 km/h (2 Bft) NO (12:20)
Bad Saulgau595 m03:30-2,3-2,3 (03:30)-1,8 (13:45)0,0 l/m²91%1023,53,2 km/h (1 Bft) O29,0 km/h (5 Bft) SO (12:00)
Bad Saulgau-Lampertsweiler627 m03:30-3,0-3,1 (03:30)-1,3 (01:15)0,0 l/m²90%1026,91,6 km/h (1 Bft) SO3,2 km/h (1 Bft) SO (02:55)
Bad Schussenried572 m03:30-2,5-2,5 (03:25)-1,7 (00:00)0,0 l/m²95%1022,70,0 km/h (0 Bft) W-NW0,0 km/h (0 Bft) W-NW (00:00)
Bergatreute615 m03:30-2,9-2,9 (03:30)-1,8 (01:25)0,0 l/m²95%1024,60,0 km/h (0 Bft) W0,0 km/h (0 Bft) S-SW (00:00)
Biberach (Riss), Boehringer533 m03:30-1,2-1,3 (03:30)0,3 (00:10)0,0 l/m²92%1023,26,8 km/h (2 Bft) SW11,9 km/h (3 Bft) SW (01:20)
Biberach (Riss), Realschule553 m03:30-1,9-1,9 (03:25)-0,7 (14:45)0,0 l/m²93%1025,50,0 km/h (0 Bft) S25,7 km/h (4 Bft) W-NW (13:15)
Bodnegg-Rotheidlen677 m03:30-2,3-3,1 (01:05)-2,3 (02:45)0,0 l/m²92%1024,68,0 km/h (2 Bft) W11,3 km/h (2 Bft) W (03:15)
Burgrieden523 m03:30-1,5-1,5 (03:15)-1,0 (01:45)0,0 l/m²88%1024,14,8 km/h (1 Bft) SW8,0 km/h (2 Bft) SW (02:35)
Burgrieden-Hochstetten510 m03:30-1,2-1,2 (23:15)-0,4 (14:45)0,0 l/m²92%1024,43,2 km/h (1 Bft) SW19,3 km/h (3 Bft) W (15:10)
Ebersbach579 m03:30-3,2-3,2 (03:10)-2,6 (00:00)0,0 l/m²96%1025,30,0 km/h (0 Bft) S-SO0,0 km/h (0 Bft) SW (00:00)
Ebersbach-Boos605 m03:30-3,3-3,3 (03:15)-2,7 (00:00)0,0 l/m²96%1025,10,0 km/h (0 Bft) S4,8 km/h (1 Bft) SO (01:30)
Ehingen535 m00:35-1,3-1,3 (00:35)-1,3 (00:35)0,0 l/m²90%1024,12,6 km/h (1 Bft) W-SW5,2 km/h (1 Bft) W-SW (00:30)
Erlenmoos645 m03:30-1,5-1,5 (03:25)-1,1 (01:30)0,0 l/m²95%1024,60,0 km/h (0 Bft) S-SW0,0 km/h (0 Bft) W-SW (00:00)
Ertingen569 m03:35-2,2-2,2 (03:35)-1,4 (00:00)0,0 l/m²92%1024,21,6 km/h (1 Bft) SW8,0 km/h (2 Bft) S-SW (02:40)
Friedrichshafen405 m03:30-2,5-2,5 (03:30)-1,1 (15:00)0,0 l/m²92%1025,13,2 km/h (1 Bft) N-NO17,7 km/h (3 Bft) W-SW (07:50)
Günzburg443 m03:30-0,3-1,1 (01:45)-0,3 (00:00)0,0 l/m²92%1021,40,0 km/h (0 Bft) SW6,4 km/h (2 Bft) SW (02:05)
Höchsten802 m03:30-2,8-2,8 (03:00)-1,9 (00:00)0,0 l/m²90%1022,60,0 km/h (0 Bft) N-NO14,5 km/h (3 Bft) N-NW (00:50)
Horgenzell618 m03:30-2,2-2,4 (02:50)-1,9 (01:50)0,0 l/m²86%1023,44,8 km/h (1 Bft) S-SO6,4 km/h (2 Bft) S-SO (03:25)
Hoßkirch632 m03:30-3,9-4,1 (02:35)-3,1 (01:25)0,0 l/m²94%1023,80,0 km/h (0 Bft) W9,7 km/h (2 Bft) W (00:25)
Isny im Allgäu695 m03:30-4,2-4,2 (03:30)-2,9 (00:00)0,0 l/m²94%1024,40,0 km/h (0 Bft) SO3,2 km/h (1 Bft) SO (02:55)
Kappel-Grafenhausen163 m03:25-1,1-1,1 (03:25)0,7 (12:30)0,0 l/m²92%1023,60,0 km/h (0 Bft) N11,3 km/h (2 Bft) W-NW (20:40)
Kirchberg an der Iller584 m03:30-1,4-1,4 (03:30)-0,9 (14:35)0,0 l/m²88%1014,80,0 km/h (0 Bft) O-SO14,8 km/h (3 Bft) N-NO (11:40)
Kißlegg-Staibshof709 m03:30-1,9-1,9 (00:00)-1,9 (00:00)0,0 l/m²93%1024,30,0 km/h (0 Bft) SW0,0 km/h (0 Bft) SW (00:00)
Kressbronn398 m03:34-1,8-2,0 (00:50)-1,6 (01:32)0,0 l/m²91%1023,96,4 km/h (2 Bft) O-NO6,4 km/h (2 Bft) O-NO (01:12)
Kreuzthal-Steinberg-Alpe930 m03:30-4,4-5,0 (01:00)-4,0 (03:00)0,0 l/m²100%1025,00,7 km/h (0 Bft) SO4,7 km/h (1 Bft) W (02:50)
Kreuzthal-Steinberggipfel1040 m03:30-4,9-5,0 (03:30)-4,0 (02:10)-100%1025,05,4 km/h (1 Bft) SW10,8 km/h (2 Bft) W-SW (02:20)
Kristberg im Montafon (AT)1425 m03:30-9,8-10,2 (02:50)-8,3 (00:10)0,0 l/m²80%1025,46,4 km/h (2 Bft) N6,4 km/h (2 Bft) N-NO (01:45)
Laupheim500 m03:30-1,1-1,1 (03:15)-0,6 (00:00)0,0 l/m²89%1023,44,8 km/h (1 Bft) S-SW8,0 km/h (2 Bft) SW (01:55)
Leutkirch-Heggelbach670 m03:30-3,7-3,7 (00:30)-3,1 (00:00)0,0 l/m²93%1024,00,0 km/h (0 Bft) W-SW0,0 km/h (0 Bft) W-SW (00:00)
Lindau-Insel420 m03:101,11,1 (05:20)2,3 (15:20)0,0 l/m²82%1024,219,3 km/h (3 Bft) S-SO20,9 km/h (4 Bft) S (01:10)
Lindau-Stadt412 m03:300,20,2 (03:30)1,2 (12:05)0,0 l/m²84%1024,611,3 km/h (2 Bft) SO12,9 km/h (3 Bft) SO (01:15)
Maierhöfen im Allgäu733 m03:35-5,7-5,7 (03:31)-3,0 (00:00)0,0 l/m²94%1024,90,0 km/h (0 Bft) O3,2 km/h (1 Bft) O (00:00)
Maselheim-Sulmingen548 m03:30-1,6-1,6 (03:30)-0,8 (13:55)0,0 l/m²90%1025,64,8 km/h (1 Bft) W-SW22,5 km/h (4 Bft) W (13:10)
Mietingen-Baltringen528 m03:30-1,0-1,0 (03:30)-0,4 (01:05)0,0 l/m²86%1026,16,4 km/h (2 Bft) S-SW6,4 km/h (2 Bft) W (00:45)
Mindelheim-Apfeltrach620 m02:21-1,6-1,7 (00:00)-1,4 (00:38)0,0 l/m²92%1025,03,2 km/h (1 Bft) W6,4 km/h (2 Bft) SW (00:24)
Neresheim552 m03:00-0,3-0,4 (00:00)-0,1 (02:00)1,0 l/m²96%1021,615,1 km/h (3 Bft) W-NW16,6 km/h (3 Bft) W (01:00)
Neukirch570 m03:30-3,2-3,2 (03:20)-1,3 (14:20)0,0 l/m²95%1024,93,2 km/h (1 Bft) NO17,7 km/h (3 Bft) SW (08:00)
Ochsenhausen, Birkenstraße613 m03:30-1,2-1,2 (03:20)-0,8 (12:40)0,0 l/m²85%1024,93,2 km/h (1 Bft) O20,9 km/h (4 Bft) S-SW (13:35)
Ochsenhausen, Unt. Wiesen575 m03:30-1,3-1,3 (03:25)-0,6 (01:15)0,0 l/m²89%1025,93,2 km/h (1 Bft) S11,3 km/h (2 Bft) W-SW (01:00)
Ostrach619 m03:30-3,8-4,2 (00:30)-3,3 (14:05)0,0 l/m²95%1023,31,6 km/h (1 Bft) S25,7 km/h (4 Bft) W-SW (11:55)
Ravensburg428 m03:30-2,4-2,4 (03:30)-1,2 (01:10)0,0 l/m²92%1024,00,0 km/h (0 Bft) N6,4 km/h (2 Bft) N (00:50)
Ravensburg-Wernsreute511 m03:30-4,3-4,3 (03:15)-2,9 (14:50)0,0 l/m²93%1026,84,8 km/h (1 Bft) N-NW24,1 km/h (4 Bft) W-SW (13:10)
Reichenbach an der Fils343 m03:300,60,6 (02:25)1,1 (00:00)0,0 l/m²89%1026,26,4 km/h (2 Bft) W-NW14,5 km/h (3 Bft) SW (03:20)
Reinstetten559 m03:30-1,7-1,8 (00:15)-0,9 (02:25)0,0 l/m²92%1024,96,4 km/h (2 Bft) SW11,3 km/h (2 Bft) W-SW (01:50)
Riedlingen530 m03:30-2,3-2,3 (03:25)-1,8 (01:05)0,0 l/m²94%1024,41,6 km/h (1 Bft) S-SW6,4 km/h (2 Bft) S-SW (00:10)
Rißtissen489 m03:30-0,6-0,6 (03:00)-0,3 (00:25)0,2 l/m²93%1022,01,6 km/h (1 Bft) S-SW8,0 km/h (2 Bft) SW (00:35)
Schemmerhofen520 m03:30-0,8-0,8 (03:25)-0,2 (01:05)0,0 l/m²91%1023,70,0 km/h (0 Bft) W-SW9,7 km/h (2 Bft) W-SW (01:05)
Silbertal im Montafon (AT)884 m03:30-7,1-7,1 (03:25)-3,9 (00:10)0,0 l/m²86%1025,50,0 km/h (0 Bft) O-NO3,2 km/h (1 Bft) NO (00:05)
Tettnang466 m03:30-1,2-1,7 (01:35)-1,0 (02:55)0,0 l/m²91%1023,56,4 km/h (2 Bft) O-SO6,4 km/h (2 Bft) O-SO (01:55)
Tuttlingen662 m03:30-6,2-6,2 (03:30)-4,4 (00:00)0,0 l/m²90%1025,10,0 km/h (0 Bft) W-NW0,0 km/h (0 Bft) W-NW (00:00)
Ummendorf547 m03:30-2,1-2,1 (03:25)-1,0 (00:00)0,0 l/m²93%1025,43,2 km/h (1 Bft) S-SO6,4 km/h (2 Bft) S-SO (00:00)
Ummendorf-Fischbach558 m03:30-2,4-2,5 (03:30)-1,4 (00:00)0,0 l/m²94%1025,70,0 km/h (0 Bft) S-SW8,0 km/h (2 Bft) S-SW (00:20)
Waldburg707 m03:30-2,9-3,1 (02:15)-2,4 (00:00)0,0 l/m²93%1024,40,0 km/h (0 Bft) N1,6 km/h (1 Bft) N (03:00)
Waltenhofen im Allgäu720 m03:30-3,8-4,4 (00:05)-2,4 (01:30)0,0 l/m²86%1024,30,0 km/h (0 Bft) N9,7 km/h (2 Bft) N (01:40)
Weingarten500 m03:30-2,1-2,1 (03:25)-1,3 (00:00)0,0 l/m²92%1024,40,0 km/h (0 Bft) S-SO8,0 km/h (2 Bft) S-SO (02:50)
Winterlingen785 m01:00-4,4-4,4 (01:00)-3,7 (00:00)0,0 l/m²96%1023,30,0 km/h (0 Bft) W-NW3,6 km/h (1 Bft) W (00:45)
Herbststimmung am Schlossweiher Siggen im Allgäu
Fotograf: Armin Woll, 12.11.2018

AKTUELL

Tornado
Bad Waldsee - Reute
13.06.2016

>> zum Video

Mit freundlicher Genehmigung von
Peter Stotz

  Wetterwarte Süd - Bad Schussenried | Mittwoch, 12. Dezember 2018 | 03:35 Uhr
 
aktuell
Minimum
Maximum
Durchschnitt
   Temperatur
-2,5 °C
-2,5 °C
(03:25 Uhr)
-1,7 °C
(00:00 Uhr)
-2,1 °C
   Windchill
-2,5 °C
-2,5 °C
(03:25 Uhr)
-1,8 °C
(00:00 Uhr)
-2,1 °C
   Luftfeuchtigkeit
95 %
93 %
(00:00 Uhr)
95 %
(03:30 Uhr)
94 %
  Taupunkt
-3,2 °C
-3,3 °C
(03:25 Uhr)
-2,6 °C
(00:20 Uhr)
-2,9 °C
  Luftdruck
1022,7 hPa
1022,5 hPa
(01:55 Uhr)
1023,2 hPa
(00:25 Uhr)
1022,8 hPa
  Wind
0,0 km/h
294 ° / W-NW
0,0 km/h
(00:00 Uhr)
0,0 km/h
(00:00 Uhr)
0,0 km/h
  Niederschlag
letzte Stunde: 0,0 l/m²
aktuelle Woche: 5,8 l/m²
 
heute: 0,0 l/m²
aktueller Monat: 41,4 l/m²
 Sonnenaufgang heute:
08:01 Uhr
 |   
Sonnenaufgang morgen:
08:02    13. Dezember 2018
 Sonnenuntergang heute:
16:28 Uhr
 |   
Sonnenuntergang morgen:
16:28    13. Dezember 2018
Die dargestellten Werte repräsentieren die Daten des akt. Tages!
 
wetterstationen
wetterstationen
- derzeit 74 Stationen
wetterstationen
wetterstationen
- kartographische Darstellung
niederschlagsdatenbank
niederschlagsstationen
- derzeit 102 Stationen
niederschlagsdatenbank
niederschlagsstationen
- kartographische Darstellung
webcams
interessante webcams
im Vorhersagegebiet
 
Di. 7.30 Uhr - Mi. 7.30 Uhr (MEZ)
1.Bad Waldsee-Haisterkirch0,3 l/m²
2.Bad Schussenried
Konradstraße
0,1 l/m²
3.Füramoos0,0 l/m²
 
Mi. 12.12.2018 - 7.30 Uhr (MEZ)
1.Bad Schussenried
Konradstraße
2 cm, durchbrochen
 
 besucherzahl
40.087.459

 
  treffpunkt & service

zugriffe:
insgesamt: 40.087.459
aktueller monat: 161.471
heute: 288
momentan online: 4
 
 
monatshöchstwert: 653.625
vorheriger monat: 361.432
gestern: 14.522
tageshöchstwert: 45.129
 
wetterwarte süd
 
konradstraße 3
info@wetterwarte-sued.com
roland roth
 
88427 bad schussenried